Aérodrome :
LOGIN :

S'inscrire | Disclaimer

   EN    FR    IT 

 










Légende :    VFR   VFR Marginal   IFR   IFR Intensif   IFR Très Intensif
Visi : 
Plafond : 
>= 8 km
>= 3000ft
5 à 8 km
1000 à 3000 ft
1500m à 5 km
500 à 1000 ft
800 à 1500m
200 à 500 ft
< 800m
< 200 ft
Symboles :   Orages  Brouillard  Fortes neiges  Fortes précipitations  Vent > 20 kt
SIGMETs :   Divers  Orages  Givrage  Turbulence  Onde Orograph.  Cendres Volcan.






- Altitude de l'aérodrome : 238 ft
- Code IATA : FAB


EGLF - Farnborough

DERNIER METAR :
  • 071850Z AUTO 23014KT 9999 OVC018/// 10/07 Q1012

METARs EXPIRÉS :
  • 071820Z AUTO 22011KT 9999 OVC017/// 10/06 Q1012
  • 071750Z AUTO 23008KT 9999 OVC020/// 09/06 Q1013
  • 071720Z AUTO 23012KT 9999 BKN021/// 09/06 Q1012
  • 071650Z AUTO 22015KT 9999 OVC021 09/06 Q1013
  • 071620Z AUTO 22010KT 9999 OVC025/// 09/06 Q1013

TAF TAF EGLF
Valide du 07 à 18h jusqu'au 07 à 20h UTC


071659Z 0718/0720 21012KT 9999 SCT035
TEMPO 0719/0720 BKN014
ATIS : +44 09063 800 400 (*282)



MET'MAP, la Météo Aéronautique d'un coup d'oeil ! - Copyright ORBIFLY Décembre 2007 - Disclaimer

ORBIFLY MET'MAP TEAM :

Programmation & Développement : Alexandra Zaïnal
Sur une idée originale de : Baudouin d'Aumeries
Assistance à la programmation : Marc-Olivier Méhu
Soutien technique & logistique : Manuel Goepfert

Contact : metmap@orbifly.com




SOURCES & CREDITS :

   NOAA